createdAt,value
2022-08-16T00:03:48.374Z,17.40
2022-08-16T00:06:25.109Z,16.20
2022-08-16T00:09:25.123Z,17.40
2022-08-16T00:12:01.313Z,17.30
2022-08-16T00:15:03.871Z,19.20
2022-08-16T00:17:56.819Z,17.20
2022-08-16T00:20:50.761Z,17.20
2022-08-16T00:23:39.959Z,17.10
2022-08-16T00:27:23.943Z,17.00
2022-08-16T00:30:19.267Z,16.90
2022-08-16T00:33:33.052Z,17.50
2022-08-16T00:36:27.472Z,16.80
2022-08-16T00:41:53.083Z,16.90
2022-08-16T00:44:41.496Z,16.90
2022-08-16T00:47:30.111Z,16.90
2022-08-16T00:50:17.770Z,18.00
2022-08-16T00:52:56.687Z,16.90
2022-08-16T00:55:37.691Z,18.60
2022-08-16T00:58:36.731Z,18.40
2022-08-16T01:01:22.877Z,19.20
2022-08-16T01:04:01.534Z,16.70
2022-08-16T01:07:28.789Z,17.70
2022-08-16T01:10:32.735Z,16.70
2022-08-16T01:13:43.246Z,16.70
2022-08-16T01:16:51.988Z,16.70
2022-08-16T01:20:24.114Z,16.70
2022-08-16T01:23:13.525Z,16.70
2022-08-16T01:27:03.880Z,16.70
2022-08-16T01:29:56.734Z,16.50
2022-08-16T01:32:42.880Z,16.60
2022-08-16T01:35:29.261Z,16.50
2022-08-16T01:38:25.968Z,19.60
2022-08-16T01:41:23.817Z,16.90
2022-08-16T01:44:10.642Z,16.60
2022-08-16T01:47:01.096Z,16.70
2022-08-16T01:50:41.868Z,18.30
2022-08-16T01:53:30.245Z,16.60
2022-08-16T01:56:06.374Z,16.60
2022-08-16T02:01:40.786Z,16.80
2022-08-16T02:04:49.558Z,19.80
2022-08-16T02:07:31.992Z,16.60
2022-08-16T02:10:12.139Z,16.50
2022-08-16T02:12:59.857Z,16.50
2022-08-16T02:18:34.657Z,16.40
2022-08-16T02:22:09.383Z,16.50
2022-08-16T02:24:57.020Z,16.60
2022-08-16T02:27:32.281Z,16.50
2022-08-16T02:30:37.503Z,16.50
2022-08-16T02:33:24.660Z,16.60
2022-08-16T02:37:51.240Z,16.60
2022-08-16T02:40:43.056Z,16.60
2022-08-16T02:43:42.225Z,18.90
2022-08-16T02:46:30.124Z,17.80
2022-08-16T02:50:54.983Z,17.50
2022-08-16T02:53:43.736Z,16.40
2022-08-16T02:56:41.275Z,16.40
2022-08-16T03:00:34.046Z,16.30
2022-08-16T03:04:28.864Z,16.20
2022-08-16T03:06:43.380Z,16.10
2022-08-16T03:10:36.932Z,16.00
2022-08-16T03:14:28.385Z,16.00
2022-08-16T03:17:06.174Z,15.90
2022-08-16T03:20:00.179Z,15.90
2022-08-16T03:22:38.817Z,16.00
2022-08-16T03:25:43.996Z,17.00
2022-08-16T03:28:23.631Z,18.90
2022-08-16T03:31:01.048Z,19.20
2022-08-16T03:35:00.894Z,18.30
2022-08-16T03:38:02.435Z,15.80
2022-08-16T03:40:40.024Z,15.80
2022-08-16T03:43:21.446Z,19.00
2022-08-16T03:46:48.426Z,18.40
2022-08-16T03:49:51.582Z,17.70
2022-08-16T03:52:31.524Z,15.90
2022-08-16T03:55:10.480Z,16.10
2022-08-16T03:57:53.879Z,16.00
2022-08-16T04:00:36.077Z,16.10
2022-08-16T04:03:33.406Z,16.10
2022-08-16T04:06:16.119Z,16.10
2022-08-16T04:09:04.455Z,16.10
2022-08-16T04:11:48.222Z,16.50
2022-08-16T04:14:48.717Z,16.00
2022-08-16T04:17:26.967Z,16.00
2022-08-16T04:20:40.593Z,16.00
2022-08-16T04:26:30.822Z,16.00
2022-08-16T04:29:16.296Z,16.00
2022-08-16T04:31:59.964Z,15.80
2022-08-16T04:34:42.715Z,16.20
2022-08-16T04:37:42.375Z,16.90
2022-08-16T04:40:27.500Z,15.80
2022-08-16T04:43:11.791Z,19.00
2022-08-16T04:46:00.370Z,16.00
2022-08-16T04:53:56.805Z,15.80
2022-08-16T04:56:49.223Z,15.90
2022-08-16T04:59:33.144Z,17.80
2022-08-16T05:02:41.426Z,18.50
2022-08-16T05:05:23.635Z,16.30
2022-08-16T05:08:00.383Z,16.40
2022-08-16T05:10:51.550Z,16.50
2022-08-16T05:13:40.379Z,16.60
2022-08-16T05:16:38.564Z,16.70
2022-08-16T05:24:45.259Z,16.90
2022-08-16T05:27:24.092Z,17.00
2022-08-16T05:30:34.539Z,17.00
2022-08-16T05:33:02.931Z,16.90
2022-08-16T05:35:55.368Z,18.70
2022-08-16T05:38:40.878Z,19.90
2022-08-16T05:57:08.455Z,17.20
2022-08-16T05:59:59.665Z,17.40
2022-08-16T06:02:38.544Z,17.50
2022-08-16T06:05:26.401Z,17.50
2022-08-16T06:08:44.942Z,17.60
2022-08-16T06:11:35.539Z,17.70
2022-08-16T06:14:15.643Z,21.20
2022-08-16T06:17:05.556Z,17.80
2022-08-16T06:28:16.964Z,18.30
2022-08-16T06:31:56.543Z,18.50
2022-08-16T06:34:55.318Z,18.60
2022-08-16T06:37:52.445Z,18.80
2022-08-16T06:44:44.314Z,18.90
2022-08-16T06:47:20.555Z,19.20
2022-08-16T06:58:22.648Z,19.50
2022-08-16T07:01:44.911Z,19.60
2022-08-16T07:05:27.261Z,19.60
2022-08-16T07:08:34.978Z,19.70
2022-08-16T07:11:10.330Z,19.80
2022-08-16T07:18:11.793Z,20.00
2022-08-16T07:26:25.399Z,20.10
2022-08-16T07:29:08.832Z,20.30
2022-08-16T07:32:02.016Z,20.40
2022-08-16T07:34:48.378Z,20.40
2022-08-16T07:37:24.192Z,21.00
2022-08-16T07:39:59.298Z,20.80
2022-08-16T07:42:35.148Z,21.50
2022-08-16T07:49:58.144Z,21.10
2022-08-16T07:52:44.371Z,21.30
2022-08-16T07:55:20.445Z,21.40
2022-08-16T08:02:01.038Z,21.40
2022-08-16T08:08:57.578Z,21.50
2022-08-16T08:12:31.857Z,21.80
2022-08-16T08:19:26.491Z,22.20
2022-08-16T08:22:09.947Z,22.50
2022-08-16T08:24:59.115Z,25.10
2022-08-16T08:31:47.618Z,22.50
2022-08-16T08:38:45.985Z,22.70
2022-08-16T08:49:55.702Z,23.20
2022-08-16T08:56:46.808Z,23.70
2022-08-16T09:00:50.929Z,23.80
2022-08-16T09:08:50.255Z,22.60
2022-08-16T09:11:38.902Z,24.40
2022-08-16T09:14:50.891Z,24.50
2022-08-16T09:17:47.206Z,24.60
2022-08-16T09:20:34.816Z,24.50
2022-08-16T09:23:38.697Z,24.70
2022-08-16T09:26:44.053Z,25.20
2022-08-16T09:33:32.519Z,24.60
2022-08-16T09:40:32.941Z,24.70
2022-08-16T09:43:46.568Z,24.40
2022-08-16T09:46:44.663Z,24.00
2022-08-16T09:49:12.095Z,24.40
2022-08-16T09:51:46.992Z,24.20
2022-08-16T09:54:25.022Z,26.20
2022-08-16T09:57:14.083Z,25.10
2022-08-16T09:59:56.211Z,27.20
2022-08-16T10:02:32.142Z,27.30
2022-08-16T10:05:16.511Z,26.20
2022-08-16T10:07:56.752Z,28.20
2022-08-16T10:10:31.477Z,26.50
2022-08-16T10:13:19.521Z,27.00
2022-08-16T10:16:48.961Z,27.10
2022-08-16T10:19:25.969Z,27.20
2022-08-16T10:22:05.179Z,28.90
2022-08-16T10:27:19.335Z,28.60
2022-08-16T10:28:43.408Z,26.90
2022-08-16T10:31:45.733Z,26.70
2022-08-16T10:34:31.517Z,27.60
2022-08-16T10:37:10.669Z,26.20
2022-08-16T10:39:45.533Z,26.30
2022-08-16T10:42:23.632Z,27.60
2022-08-16T10:49:18.144Z,26.00
2022-08-16T10:56:55.964Z,26.00
2022-08-16T10:59:38.367Z,25.90
2022-08-16T11:02:59.079Z,27.10
2022-08-16T11:05:14.134Z,27.50
2022-08-16T11:08:12.425Z,26.00
2022-08-16T11:11:04.541Z,26.20
2022-08-16T11:13:59.548Z,28.40
2022-08-16T11:27:18.516Z,26.40
2022-08-16T11:38:55.327Z,26.90
2022-08-16T11:45:42.414Z,27.00
2022-08-16T11:48:20.042Z,27.90
2022-08-16T11:50:58.472Z,27.90
2022-08-16T11:53:36.057Z,26.60
2022-08-16T11:56:10.773Z,26.50
2022-08-16T11:58:51.469Z,26.50
2022-08-16T12:01:59.551Z,28.40
2022-08-16T12:04:38.578Z,26.40
2022-08-16T12:07:16.338Z,28.80
2022-08-16T12:09:56.568Z,28.40
2022-08-16T12:12:32.879Z,28.20
2022-08-16T12:19:35.140Z,27.10
2022-08-16T12:22:18.923Z,28.20
2022-08-16T12:29:20.340Z,27.70
2022-08-16T12:32:01.205Z,27.60
2022-08-16T12:34:52.931Z,27.40
2022-08-16T12:41:45.003Z,27.30
2022-08-16T12:45:12.412Z,27.40
2022-08-16T12:49:01.865Z,27.10
2022-08-16T12:51:59.000Z,27.60
2022-08-16T12:54:40.811Z,28.00
2022-08-16T12:57:15.498Z,28.10
2022-08-16T12:59:56.209Z,28.60
2022-08-16T13:06:46.221Z,27.40
2022-08-16T13:09:26.698Z,27.30
2022-08-16T13:13:20.779Z,27.60
2022-08-16T13:16:10.734Z,27.30
2022-08-16T13:18:54.845Z,28.00
2022-08-16T13:21:29.334Z,28.00
2022-08-16T13:24:05.879Z,30.10
2022-08-16T13:35:21.642Z,28.20
2022-08-16T13:37:57.290Z,29.00
2022-08-16T13:40:33.311Z,28.50
2022-08-16T13:43:07.995Z,28.70
2022-08-16T13:45:45.883Z,30.10
2022-08-16T13:49:43.470Z,30.40
2022-08-16T13:56:37.728Z,28.70
2022-08-16T13:59:21.244Z,28.80
2022-08-16T14:02:04.280Z,28.70
2022-08-16T14:04:43.007Z,29.50
2022-08-16T14:07:24.701Z,28.50
2022-08-16T14:10:00.001Z,29.80
2022-08-16T14:12:37.923Z,29.70
2022-08-16T14:15:16.144Z,30.00
2022-08-16T14:18:43.690Z,28.90
2022-08-16T14:21:18.581Z,29.20
2022-08-16T14:23:56.655Z,29.80
2022-08-16T14:26:32.591Z,31.40
2022-08-16T14:29:10.523Z,30.50
2022-08-16T14:31:44.988Z,30.40
2022-08-16T14:34:19.430Z,29.30
2022-08-16T14:36:54.840Z,29.30
2022-08-16T14:39:32.588Z,30.20
2022-08-16T14:42:18.098Z,29.30
2022-08-16T14:44:57.267Z,29.50
2022-08-16T14:48:33.789Z,29.50
2022-08-16T14:51:09.893Z,29.60
2022-08-16T14:54:31.754Z,29.70
2022-08-16T14:57:09.328Z,29.40
2022-08-16T14:59:45.326Z,29.10
2022-08-16T15:02:34.520Z,29.50
2022-08-16T15:05:11.567Z,30.30
2022-08-16T15:08:36.644Z,29.20
2022-08-16T15:11:58.968Z,29.20
2022-08-16T15:18:46.946Z,29.60
2022-08-16T15:21:32.458Z,29.60
2022-08-16T15:24:07.520Z,31.30
2022-08-16T15:26:51.487Z,29.30
2022-08-16T15:29:27.364Z,30.60
2022-08-16T15:32:04.363Z,30.90
2022-08-16T15:35:49.051Z,29.50
2022-08-16T15:47:06.908Z,29.30
2022-08-16T16:04:09.142Z,28.50
2022-08-16T16:06:54.844Z,28.30
2022-08-16T16:09:36.947Z,28.00
2022-08-16T16:12:42.095Z,28.00
2022-08-16T16:15:07.807Z,30.60
2022-08-16T16:17:42.511Z,28.20
2022-08-16T16:20:18.761Z,27.70
2022-08-16T16:22:54.636Z,27.70
2022-08-16T16:25:38.477Z,29.20
2022-08-16T16:29:05.272Z,29.50
2022-08-16T16:31:12.080Z,28.90
2022-08-16T16:33:52.989Z,29.50
2022-08-16T16:36:33.508Z,29.20
2022-08-16T16:39:11.703Z,29.80
2022-08-16T16:41:50.261Z,30.00
2022-08-16T16:44:33.801Z,27.70
2022-08-16T16:47:10.899Z,28.40
2022-08-16T16:49:45.312Z,28.40
2022-08-16T16:56:37.531Z,27.80
2022-08-16T16:59:11.656Z,29.50
2022-08-16T17:01:59.848Z,28.10
2022-08-16T17:05:04.396Z,28.00
2022-08-16T17:07:50.525Z,28.10
2022-08-16T17:10:46.606Z,28.10
2022-08-16T17:13:25.807Z,28.10
2022-08-16T17:16:02.260Z,29.30
2022-08-16T17:22:54.480Z,28.00
2022-08-16T17:26:22.283Z,28.10
2022-08-16T17:29:11.196Z,27.90
2022-08-16T17:31:50.529Z,29.30
2022-08-16T17:34:32.899Z,29.50
2022-08-16T17:41:32.529Z,27.40
2022-08-16T17:44:09.351Z,27.20
2022-08-16T17:46:52.537Z,29.20
2022-08-16T17:49:27.281Z,27.00
2022-08-16T17:52:03.065Z,28.40
2022-08-16T17:54:37.563Z,27.10
2022-08-16T17:57:12.542Z,28.70
2022-08-16T17:59:50.671Z,27.90
2022-08-16T18:02:43.884Z,26.70
2022-08-16T18:05:45.425Z,29.00
2022-08-16T18:08:21.409Z,26.50
2022-08-16T18:11:03.443Z,28.20
2022-08-16T18:14:09.170Z,27.80
2022-08-16T18:16:48.793Z,26.10
2022-08-16T18:19:44.776Z,26.00
2022-08-16T18:22:26.927Z,25.90
2022-08-16T18:25:08.362Z,25.80
2022-08-16T18:27:43.149Z,25.50
2022-08-16T18:30:18.099Z,28.30
2022-08-16T18:32:55.387Z,25.20
2022-08-16T18:35:30.793Z,26.40
2022-08-16T18:38:05.655Z,24.90
2022-08-16T18:40:41.695Z,24.80
2022-08-16T18:43:19.913Z,27.20
2022-08-16T18:45:56.749Z,25.90
2022-08-16T18:48:37.805Z,24.30
2022-08-16T18:51:20.301Z,26.70
2022-08-16T18:58:36.763Z,23.90
2022-08-16T19:01:11.331Z,25.60
2022-08-16T19:03:48.473Z,27.00
2022-08-16T19:06:23.063Z,25.70
2022-08-16T19:09:02.781Z,23.50
2022-08-16T19:11:38.208Z,26.00
2022-08-16T19:14:12.953Z,23.90
2022-08-16T19:17:20.261Z,25.20
2022-08-16T19:19:56.931Z,23.10
2022-08-16T19:23:02.211Z,23.00
2022-08-16T19:25:49.621Z,23.80
2022-08-16T19:28:51.138Z,22.80
2022-08-16T19:31:38.840Z,23.00
2022-08-16T19:34:17.919Z,24.10
2022-08-16T19:36:57.355Z,22.60
2022-08-16T19:39:33.412Z,24.00
2022-08-16T19:42:18.027Z,23.70
2022-08-16T19:48:06.163Z,23.20
2022-08-16T19:50:43.565Z,24.10
2022-08-16T19:57:24.159Z,21.90
2022-08-16T20:00:01.843Z,21.90
2022-08-16T20:07:05.554Z,21.80
2022-08-16T20:09:42.659Z,21.70
2022-08-16T20:13:01.831Z,21.60
2022-08-16T20:15:52.121Z,21.60
2022-08-16T20:18:29.618Z,21.50
2022-08-16T20:21:05.310Z,21.50
2022-08-16T20:23:40.246Z,24.90
2022-08-16T20:26:19.711Z,22.60
2022-08-16T20:28:56.084Z,21.40
2022-08-16T20:31:57.564Z,21.90
2022-08-16T20:34:39.119Z,21.20
2022-08-16T20:37:44.180Z,22.50
2022-08-16T20:40:33.792Z,19.60
2022-08-16T20:43:30.214Z,21.00
2022-08-16T20:46:05.204Z,21.10
2022-08-16T20:48:40.244Z,22.00
2022-08-16T20:51:30.361Z,20.80
2022-08-16T20:54:22.756Z,23.70
2022-08-16T20:56:57.486Z,24.30
2022-08-16T20:59:34.313Z,20.80
2022-08-16T21:02:20.061Z,19.30
2022-08-16T21:04:55.600Z,22.10
2022-08-16T21:07:31.773Z,20.60
2022-08-16T21:10:15.615Z,22.10
2022-08-16T21:13:01.989Z,20.50
2022-08-16T21:15:40.205Z,20.50
2022-08-16T21:18:27.144Z,20.40
2022-08-16T21:22:03.739Z,20.30
2022-08-16T21:25:41.481Z,20.20
2022-08-16T21:28:40.070Z,20.20
2022-08-16T21:31:21.166Z,20.20
2022-08-16T21:33:56.947Z,21.70
2022-08-16T21:36:35.056Z,23.30
2022-08-16T21:39:50.930Z,21.50
2022-08-16T21:42:26.774Z,19.90
2022-08-16T21:45:03.757Z,19.80
2022-08-16T21:47:50.081Z,23.10
2022-08-16T21:50:25.596Z,22.60
2022-08-16T21:53:13.413Z,19.60
2022-08-16T21:55:57.446Z,22.20
2022-08-16T21:58:33.327Z,21.20
2022-08-16T22:01:08.498Z,20.80
2022-08-16T22:03:45.910Z,19.50
2022-08-16T22:06:39.394Z,19.50
2022-08-16T22:09:16.414Z,19.40
2022-08-16T22:11:51.126Z,19.90
2022-08-16T22:14:27.971Z,19.70
2022-08-16T22:17:03.124Z,22.10
2022-08-16T22:19:39.868Z,19.30
2022-08-16T22:22:15.445Z,22.30
2022-08-16T22:24:49.952Z,21.60
2022-08-16T22:27:28.502Z,20.90
2022-08-16T22:30:03.384Z,19.10
2022-08-16T22:32:44.134Z,22.20
2022-08-16T22:35:21.817Z,22.50
2022-08-16T22:38:50.525Z,19.00
2022-08-16T22:40:53.464Z,21.30
2022-08-16T22:43:29.944Z,19.00
2022-08-16T22:46:09.181Z,19.90
2022-08-16T22:48:45.921Z,18.90
2022-08-16T22:51:24.337Z,19.00
2022-08-16T22:54:34.192Z,21.70
2022-08-16T22:57:20.110Z,18.80
2022-08-16T22:59:55.067Z,18.70
2022-08-16T23:02:33.153Z,18.70
2022-08-16T23:06:24.534Z,18.60
2022-08-16T23:09:01.961Z,18.50
2022-08-16T23:11:45.267Z,18.50
2022-08-16T23:14:27.656Z,18.50
2022-08-16T23:17:32.668Z,18.50
2022-08-16T23:20:56.698Z,18.20
2022-08-16T23:23:32.184Z,18.20
2022-08-16T23:26:43.774Z,18.20
2022-08-16T23:29:23.305Z,18.20
2022-08-16T23:32:13.318Z,18.00
2022-08-16T23:35:15.433Z,18.20
2022-08-16T23:37:51.758Z,18.20
2022-08-16T23:40:28.681Z,18.10
2022-08-16T23:43:09.620Z,18.00
2022-08-16T23:46:01.255Z,19.90
2022-08-16T23:49:57.198Z,18.00
2022-08-16T23:51:45.402Z,17.90
2022-08-16T23:55:36.593Z,17.90
2022-08-16T23:58:40.102Z,17.90
